Time;durP1;ratioP1;P1;durP2;ratioP2;P2;SDS_P1;SDS_P2;PMS_P1;PMS_P2;Temp;Humidity;BMP_temperature;BMP_pressure;BME280_temperature;BME280_humidity;BME280_pressure;Samples;Min_cycle;Max_cycle;Signal;HPM_P1;HPM_P2
2023/09/11 00:02:37;;;;;;;;;;;;;;;20.87;63.28;99664.69;10408002;28;1902;-67
2023/09/11 00:07:33;;;;;;;;;;;;;;;20.86;63.38;99657.69;10414599;28;810;-66
2023/09/11 00:12:29;;;;;;;;;;;;;;;20.86;63.24;99649.75;10416486;28;857;-67
2023/09/11 00:17:24;;;;;;;;;;;;;;;20.88;63.33;99646.97;10416188;28;809;-67
2023/09/11 00:22:20;;;;;;;;;;;;;;;20.90;63.42;99650.41;10415896;28;1889;-67
2023/09/11 00:27:16;;;;;;;;;;;;;;;20.90;63.26;99642.47;10414608;28;900;-67
2023/09/11 00:32:12;;;;;;;;;;;;;;;20.87;63.13;99640.00;10415605;28;1159;-67
2023/09/11 00:37:08;;;;;;;;;;;;;;;20.85;63.38;99634.75;10415513;28;833;-67
2023/09/11 00:42:04;;;;;;;;;;;;;;;20.84;63.14;99625.13;10414576;28;1910;-67
2023/09/11 00:47:00;;;;;;;;;;;;;;;20.82;63.03;99616.41;10414412;28;829;-67
2023/09/11 00:51:56;;;;;;;;;;;;;;;20.81;62.98;99614.72;10414970;28;909;-67
2023/09/11 00:56:52;;;;;;;;;;;;;;;20.81;63.02;99620.00;10414034;28;833;-67
2023/09/11 01:01:47;;;;;;;;;;;;;;;20.78;62.87;99615.75;10414466;28;1893;-67
2023/09/11 01:06:43;;;;;;;;;;;;;;;20.77;62.88;99613.16;10414274;28;845;-67
2023/09/11 01:11:39;;;;;;;;;;;;;;;20.74;62.87;99608.91;10413565;28;893;-66
2023/09/11 01:16:35;;;;;;;;;;;;;;;20.74;62.68;99610.69;10412325;28;774;-67
2023/09/11 01:21:31;;;;;;;;;;;;;;;20.71;62.58;99603.78;10412970;28;1948;-67
2023/09/11 01:26:27;;;;;;;;;;;;;;;20.68;62.51;99596.03;10413837;28;798;-66
2023/09/11 01:31:26;;;;;;;;;;;;;;;20.69;62.39;99603.00;10413397;28;1338;-66
2023/09/11 01:36:22;;;;;;;;;;;;;;;20.66;62.25;99600.53;10412466;28;852;-67
2023/09/11 01:41:18;;;;;;;;;;;;;;;20.64;62.36;99604.22;10412227;28;1910;-67
2023/09/11 01:46:16;;;;;;;;;;;;;;;20.66;62.15;99605.84;10413323;28;877;-67
2023/09/11 01:51:12;;;;;;;;;;;;;;;20.65;62.26;99605.94;10412621;28;907;-67
2023/09/11 01:56:08;;;;;;;;;;;;;;;20.62;62.10;99599.03;10412314;28;878;-67
2023/09/11 02:01:04;;;;;;;;;;;;;;;20.62;62.07;99601.69;10410863;28;1951;-67
2023/09/11 02:06:00;;;;;;;;;;;;;;;20.61;62.26;99601.75;10394269;28;818;-67
2023/09/11 02:10:55;;;;;;;;;;;;;;;20.59;62.10;99593.88;10411065;28;866;-67
2023/09/11 02:15:51;;;;;;;;;;;;;;;20.58;62.04;99597.50;10410441;28;999;-66
2023/09/11 02:20:47;;;;;;;;;;;;;;;20.60;62.04;99590.31;10410660;28;2041;-66
2023/09/11 02:25:43;;;;;;;;;;;;;;;20.58;62.08;99579.78;10410508;28;1583;-67
2023/09/11 02:30:39;;;;;;;;;;;;;;;20.57;61.95;99585.19;10410724;28;1289;-66
2023/09/11 02:35:35;;;;;;;;;;;;;;;20.55;62.03;99582.63;10410146;28;802;-67
2023/09/11 02:40:31;;;;;;;;;;;;;;;20.54;62.01;99585.34;10410444;28;1918;-67
2023/09/11 02:45:27;;;;;;;;;;;;;;;20.54;62.11;99583.59;10410534;28;881;-67
2023/09/11 02:50:23;;;;;;;;;;;;;;;20.54;62.05;99577.41;10409574;28;769;-67
2023/09/11 02:55:19;;;;;;;;;;;;;;;20.52;61.88;99571.34;10409989;28;843;-67
2023/09/11 03:00:15;;;;;;;;;;;;;;;20.49;62.07;99571.53;10409537;28;1898;-67
2023/09/11 03:05:11;;;;;;;;;;;;;;;20.52;61.93;99572.19;10409074;28;894;-67
2023/09/11 03:10:07;;;;;;;;;;;;;;;20.52;62.09;99566.03;10408922;28;786;-67
2023/09/11 03:15:03;;;;;;;;;;;;;;;20.50;61.92;99558.19;10408736;28;897;-67
2023/09/11 03:19:59;;;;;;;;;;;;;;;20.49;62.02;99563.56;10409045;28;1968;-67
2023/09/11 03:24:55;;;;;;;;;;;;;;;20.45;61.76;99556.75;10409037;28;865;-67
2023/09/11 03:29:51;;;;;;;;;;;;;;;20.44;61.75;99563.84;10408675;28;1317;-67
2023/09/11 03:34:47;;;;;;;;;;;;;;;20.45;61.66;99560.22;10408686;28;909;-67
2023/09/11 03:39:43;;;;;;;;;;;;;;;20.45;61.64;99556.75;10407976;28;1913;-67
2023/09/11 03:44:39;;;;;;;;;;;;;;;20.39;61.54;99559.75;10408028;28;951;-67
2023/09/11 03:49:35;;;;;;;;;;;;;;;20.40;61.68;99545.56;10407216;28;952;-67
2023/09/11 03:54:31;;;;;;;;;;;;;;;20.40;61.70;99542.91;10407791;28;927;-67
2023/09/11 03:59:27;;;;;;;;;;;;;;;20.38;61.54;99542.13;10409051;28;1893;-67
2023/09/11 04:04:23;;;;;;;;;;;;;;;20.36;61.77;99537.78;10408150;28;941;-67
2023/09/11 04:09:18;;;;;;;;;;;;;;;20.36;61.57;99536.94;10407462;28;1038;-66
2023/09/11 04:14:14;;;;;;;;;;;;;;;20.35;61.76;99538.72;10407965;28;863;-66
2023/09/11 04:19:11;;;;;;;;;;;;;;;20.34;61.70;99538.81;10407820;28;1957;-67
2023/09/11 04:24:12;;;;;;;;;;;;;;;20.37;61.77;99543.94;10408066;28;841;-67
2023/09/11 04:29:10;;;;;;;;;;;;;;;20.36;61.77;99539.59;10406678;28;1110;-66
2023/09/11 04:34:06;;;;;;;;;;;;;;;20.30;61.93;99535.50;10406912;28;973;-67
2023/09/11 04:39:04;;;;;;;;;;;;;;;20.32;61.81;99532.75;10406846;28;1974;-66
2023/09/11 04:44:00;;;;;;;;;;;;;;;20.32;61.73;99525.66;10406733;28;982;-67
2023/09/11 04:48:56;;;;;;;;;;;;;;;20.33;61.87;99534.44;10406668;28;1312;-67
2023/09/11 04:53:51;;;;;;;;;;;;;;;20.31;61.78;99534.56;10411409;28;783;-67
2023/09/11 04:58:47;;;;;;;;;;;;;;;20.29;61.80;99532.94;10414837;28;1897;-66
2023/09/11 05:03:43;;;;;;;;;;;;;;;20.26;61.61;99528.66;10413872;28;971;-67
2023/09/11 05:08:39;;;;;;;;;;;;;;;20.26;61.48;99522.53;10413608;28;782;-67
2023/09/11 05:13:35;;;;;;;;;;;;;;;20.24;61.65;99517.31;10414065;28;833;-66
2023/09/11 05:18:31;;;;;;;;;;;;;;;20.23;61.58;99517.41;10413981;28;868;-67
2023/09/11 05:23:27;;;;;;;;;;;;;;;20.23;61.68;99528.84;10412442;28;1894;-67
2023/09/11 05:28:23;;;;;;;;;;;;;;;20.21;61.79;99527.22;10412519;28;1101;-67
2023/09/11 05:33:19;;;;;;;;;;;;;;;20.21;61.59;99524.59;10412588;28;944;-67
2023/09/11 05:38:15;;;;;;;;;;;;;;;20.23;61.51;99523.56;10412763;28;865;-67
2023/09/11 05:43:11;;;;;;;;;;;;;;;20.21;61.56;99525.44;10412235;28;1913;-67
2023/09/11 05:48:11;;;;;;;;;;;;;;;20.22;61.64;99523.63;10412081;28;774;-67
2023/09/11 05:53:07;;;;;;;;;;;;;;;20.22;61.71;99523.63;10411913;28;844;-66
2023/09/11 05:58:03;;;;;;;;;;;;;;;19.67;62.96;99530.22;10411761;28;758;-66
2023/09/11 06:02:59;;;;;;;;;;;;;;;19.60;63.37;99521.75;10411656;28;1893;-66
2023/09/11 06:07:55;;;;;;;;;;;;;;;19.41;64.22;99532.47;10411448;28;866;-66
2023/09/11 06:12:51;;;;;;;;;;;;;;;19.40;64.56;99541.31;10411741;28;872;-66
2023/09/11 06:17:46;;;;;;;;;;;;;;;19.33;64.91;99542.56;10410787;28;885;-66
2023/09/11 06:22:43;;;;;;;;;;;;;;;19.35;65.65;99538.03;10410531;28;1894;-66
2023/09/11 06:27:39;;;;;;;;;;;;;;;19.38;66.20;99544.97;10410325;28;1224;-66
2023/09/11 06:32:35;;;;;;;;;;;;;;;19.53;65.67;99540.66;10412365;27;1427;-66
2023/09/11 06:37:31;;;;;;;;;;;;;;;19.68;65.46;99542.50;10411796;27;1433;-67
2023/09/11 06:42:27;;;;;;;;;;;;;;;19.97;64.50;99548.00;10409715;27;1971;-67
2023/09/11 06:47:23;;;;;;;;;;;;;;;20.09;64.06;99542.00;10418213;27;1426;-68
2023/09/11 06:52:20;;;;;;;;;;;;;;;20.18;63.91;99543.28;10451920;27;871;-67
2023/09/11 06:57:16;;;;;;;;;;;;;;;20.22;63.81;99543.00;10451171;27;972;-67
2023/09/11 07:02:12;;;;;;;;;;;;;;;20.24;63.59;99529.69;10451562;27;1897;-67
2023/09/11 07:07:07;;;;;;;;;;;;;;;20.27;63.45;99546.25;10451424;27;849;-67
2023/09/11 07:12:03;;;;;;;;;;;;;;;20.29;63.64;99541.72;10451303;27;821;-67
2023/09/11 07:17:02;;;;;;;;;;;;;;;20.30;63.34;99540.81;10450222;27;916;-67
2023/09/11 07:21:58;;;;;;;;;;;;;;;20.33;63.38;99534.44;10450838;27;1960;-67
2023/09/11 07:26:53;;;;;;;;;;;;;;;20.34;63.36;99539.66;10450363;27;1182;-67
2023/09/11 07:31:49;;;;;;;;;;;;;;;20.36;63.22;99535.16;10449416;27;1362;-67
2023/09/11 07:36:45;;;;;;;;;;;;;;;20.39;63.23;99539.41;10449960;27;975;-67
2023/09/11 07:41:41;;;;;;;;;;;;;;;20.40;63.19;99534.97;10431804;28;1917;-67
2023/09/11 07:46:37;;;;;;;;;;;;;;;20.40;63.31;99535.81;10449748;27;783;-67
2023/09/11 07:51:33;;;;;;;;;;;;;;;20.42;63.20;99535.75;10450095;28;931;-67
2023/09/11 07:56:29;;;;;;;;;;;;;;;20.43;63.23;99527.69;10449748;28;998;-67
2023/09/11 08:01:25;;;;;;;;;;;;;;;20.46;63.32;99529.31;10449968;28;1906;-67
2023/09/11 08:06:22;;;;;;;;;;;;;;;20.45;63.20;99527.63;10449295;28;981;-67
2023/09/11 08:11:18;;;;;;;;;;;;;;;20.47;63.13;99521.28;10449263;28;758;-67
2023/09/11 08:16:14;;;;;;;;;;;;;;;20.48;63.08;99530.94;10441448;28;1364;-66
2023/09/11 08:21:11;;;;;;;;;;;;;;;20.51;63.22;99532.53;10419387;28;2835;-67
2023/09/11 08:26:08;;;;;;;;;;;;;;;20.53;63.12;99525.38;10420625;27;2596;-70
2023/09/11 08:31:03;;;;;;;;;;;;;;;20.55;63.33;99520.88;10436398;27;2827;-67
2023/09/11 08:35:59;;;;;;;;;;;;;;;20.55;63.32;99529.66;10414120;27;3592;-67
2023/09/11 08:40:55;;;;;;;;;;;;;;;20.56;63.45;99525.22;10417421;27;3802;-67
2023/09/11 08:45:51;;;;;;;;;;;;;;;20.58;63.38;99528.63;10421035;27;3481;-68
2023/09/11 08:50:47;;;;;;;;;;;;;;;20.58;63.23;99533.94;10426798;27;3759;-69
2023/09/11 08:55:43;;;;;;;;;;;;;;;20.60;63.05;99534.69;10408057;27;3546;-68
2023/09/11 09:00:39;;;;;;;;;;;;;;;20.62;63.10;99534.59;10425445;27;3553;-67
2023/09/11 09:05:34;;;;;;;;;;;;;;;20.62;62.84;99526.66;10423317;27;3431;-67
2023/09/11 09:10:30;;;;;;;;;;;;;;;20.63;63.02;99521.28;10434927;27;2150;-67
2023/09/11 09:15:26;;;;;;;;;;;;;;;20.63;63.05;99513.34;10416331;27;2124;-68
2023/09/11 09:20:22;;;;;;;;;;;;;;;20.66;62.96;99518.44;10450834;27;1964;-67
2023/09/11 09:25:18;;;;;;;;;;;;;;;20.68;63.00;99518.38;10453009;27;2509;-67
2023/09/11 09:30:14;;;;;;;;;;;;;;;20.65;63.02;99511.47;10425760;27;3141;-69
2023/09/11 09:35:10;;;;;;;;;;;;;;;20.68;62.85;99513.91;10415480;27;3302;-71
2023/09/11 09:40:06;;;;;;;;;;;;;;;20.60;63.16;99505.56;10416779;27;3678;-68
2023/09/11 09:45:02;;;;;;;;;;;;;;;20.60;63.05;99502.94;10418888;27;3949;-67
2023/09/11 09:49:58;;;;;;;;;;;;;;;20.63;63.30;99491.31;10422196;27;3779;-67
2023/09/11 09:54:54;;;;;;;;;;;;;;;20.61;63.34;99496.69;10420178;27;4148;-66
2023/09/11 09:59:52;;;;;;;;;;;;;;;20.62;63.09;99485.16;10424835;27;3798;-67
2023/09/11 10:04:47;;;;;;;;;;;;;;;20.60;63.25;99479.09;10425341;27;3584;-67
2023/09/11 10:09:43;;;;;;;;;;;;;;;20.57;63.42;99476.63;10423385;27;3814;-67
2023/09/11 10:14:39;;;;;;;;;;;;;;;20.61;62.95;99459.59;10418543;27;3828;-69
2023/09/11 10:19:35;;;;;;;;;;;;;;;20.76;62.69;99457.84;10419595;27;4153;-67
2023/09/11 10:24:31;;;;;;;;;;;;;;;20.87;62.57;99454.53;10419794;27;3897;-70
2023/09/11 10:29:27;;;;;;;;;;;;;;;20.95;62.40;99449.63;10419878;27;3426;-75
2023/09/11 10:34:24;;;;;;;;;;;;;;;20.90;62.48;99457.00;10426881;27;3124;-69
2023/09/11 10:39:20;;;;;;;;;;;;;;;20.91;62.69;99438.38;10427907;27;2182;-67
2023/09/11 10:44:16;;;;;;;;;;;;;;;20.92;62.45;99434.75;10419928;27;2743;-70
2023/09/11 10:49:12;;;;;;;;;;;;;;;20.92;62.58;99429.47;10423581;27;3155;-72
2023/09/11 10:54:08;;;;;;;;;;;;;;;20.99;62.62;99422.00;10432374;27;1407;-80
2023/09/11 10:59:04;;;;;;;;;;;;;;;21.11;62.29;99425.69;10442231;27;1894;-74
2023/09/11 11:04:00;;;;;;;;;;;;;;;21.18;62.19;99414.59;10450963;27;833;-69
2023/09/11 11:08:56;;;;;;;;;;;;;;;21.10;62.23;99419.53;10437426;27;1488;-69
2023/09/11 11:13:51;;;;;;;;;;;;;;;21.13;62.18;99414.03;10438644;27;1344;-72
2023/09/11 11:18:47;;;;;;;;;;;;;;;21.13;62.25;99408.75;10449835;27;1901;-68
2023/09/11 11:23:43;;;;;;;;;;;;;;;20.99;62.61;99406.97;10420230;27;1384;-71
2023/09/11 11:33:40;;;;;;;;;;;;;;;20.88;62.76;99400.59;10409017;28;1181;-71
2023/09/11 11:38:36;;;;;;;;;;;;;;;20.86;62.79;99395.41;10408775;28;797;-71
2023/09/11 11:43:32;;;;;;;;;;;;;;;20.85;62.78;99409.59;10407349;28;1967;-71
2023/09/11 11:48:28;;;;;;;;;;;;;;;20.84;62.73;99412.34;10407934;28;971;-71
2023/09/11 11:53:24;;;;;;;;;;;;;;;20.82;62.77;99409.78;10408450;28;828;-71
2023/09/11 11:58:20;;;;;;;;;;;;;;;20.81;62.91;99405.44;10407852;28;876;-71
2023/09/11 12:03:16;;;;;;;;;;;;;;;20.81;62.81;99402.78;10414441;28;1881;-71
2023/09/11 12:08:12;;;;;;;;;;;;;;;20.81;62.76;99397.50;10416172;28;871;-71
2023/09/11 12:13:07;;;;;;;;;;;;;;;20.79;62.78;99405.53;10416581;28;845;-71
2023/09/11 12:18:03;;;;;;;;;;;;;;;20.79;62.71;99405.53;10416977;28;1031;-71
2023/09/11 12:22:59;;;;;;;;;;;;;;;20.80;62.78;99409.00;10415547;28;1955;-71
2023/09/11 12:27:55;;;;;;;;;;;;;;;20.81;62.76;99404.59;10415727;28;1326;-71
2023/09/11 12:32:51;;;;;;;;;;;;;;;20.79;62.63;99399.38;10415786;28;825;-71
2023/09/11 12:37:47;;;;;;;;;;;;;;;20.79;62.62;99392.28;10415769;28;847;-71
2023/09/11 12:42:43;;;;;;;;;;;;;;;20.81;62.52;99401.94;10414728;28;1965;-71
2023/09/11 12:47:39;;;;;;;;;;;;;;;20.79;62.52;99394.94;10415245;28;914;-71
2023/09/11 12:52:35;;;;;;;;;;;;;;;20.80;62.72;99390.47;10414603;28;863;-71
2023/09/11 12:57:31;;;;;;;;;;;;;;;20.80;62.62;99387.81;10414245;28;864;-71
2023/09/11 13:02:26;;;;;;;;;;;;;;;20.81;62.55;99386.06;10413871;28;1890;-71
2023/09/11 13:07:22;;;;;;;;;;;;;;;20.82;62.55;99382.44;10413269;28;900;-71
2023/09/11 13:12:18;;;;;;;;;;;;;;;20.82;62.49;99388.59;10412502;28;820;-71
2023/09/11 13:17:14;;;;;;;;;;;;;;;20.83;62.53;99387.66;10414172;28;866;-71
2023/09/11 13:22:10;;;;;;;;;;;;;;;20.83;62.49;99381.50;10412615;28;1898;-71
2023/09/11 13:27:06;;;;;;;;;;;;;;;20.84;62.65;99378.75;10413641;28;1017;-71
2023/09/11 13:32:02;;;;;;;;;;;;;;;20.85;62.64;99377.81;10412138;28;1171;-71
2023/09/11 13:36:59;;;;;;;;;;;;;;;20.87;62.58;99385.66;10412130;28;833;-71
2023/09/11 13:41:55;;;;;;;;;;;;;;;20.88;62.59;99382.06;10414437;27;1973;-71
2023/09/11 13:46:51;;;;;;;;;;;;;;;20.89;62.58;99370.53;10424386;27;1526;-70
2023/09/11 13:51:47;;;;;;;;;;;;;;;20.91;62.46;99379.25;10441976;27;1330;-69
2023/09/11 13:56:42;;;;;;;;;;;;;;;20.92;62.33;99378.28;10453171;27;995;-70
2023/09/11 14:01:38;;;;;;;;;;;;;;;20.92;62.47;99373.81;10435349;27;1901;-71
2023/09/11 14:06:34;;;;;;;;;;;;;;;20.95;62.43;99370.13;10428246;27;1139;-70
2023/09/11 14:11:30;;;;;;;;;;;;;;;20.95;62.36;99368.34;10437844;27;1385;-71
2023/09/11 14:16:26;;;;;;;;;;;;;;;20.98;62.28;99367.28;10431034;27;1344;-71
2023/09/11 14:21:22;;;;;;;;;;;;;;;20.98;62.14;99364.66;10413025;27;1949;-71
2023/09/11 14:26:22;;;;;;;;;;;;;;;21.00;61.98;99366.25;10414315;27;1527;-71
2023/09/11 14:31:18;;;;;;;;;;;;;;;21.07;62.09;99361.44;10410587;28;1378;-66
2023/09/11 14:36:14;;;;;;;;;;;;;;;21.08;62.42;99367.56;10435982;27;1360;-66
2023/09/11 14:41:10;;;;;;;;;;;;;;;21.07;62.67;99364.09;10445565;27;1913;-66
2023/09/11 14:46:06;;;;;;;;;;;;;;;21.22;62.17;99365.75;10410628;27;1535;-67
2023/09/11 14:51:01;;;;;;;;;;;;;;;21.21;62.47;99358.75;10412959;27;1367;-66
2023/09/11 14:56:00;;;;;;;;;;;;;;;21.13;62.95;99361.03;10409492;28;1004;-66
2023/09/11 15:00:56;;;;;;;;;;;;;;;21.12;63.04;99364.66;10420777;27;1902;-66
2023/09/11 15:05:52;;;;;;;;;;;;;;;21.12;62.86;99356.69;10439377;27;1389;-66
2023/09/11 15:10:48;;;;;;;;;;;;;;;21.15;62.85;99361.78;10421910;27;1300;-66
2023/09/11 15:15:48;;;;;;;;;;;;;;;21.18;62.86;99355.44;10432548;27;1508;-66
2023/09/11 15:20:44;;;;;;;;;;;;;;;21.20;62.64;99351.75;10431495;27;1894;-65
2023/09/11 15:25:40;;;;;;;;;;;;;;;21.23;62.64;99351.56;10408437;28;949;-66
2023/09/11 15:30:42;;;;;;;;;;;;;;;21.24;62.56;99355.88;10408305;28;1337;-67
2023/09/11 15:35:37;;;;;;;;;;;;;;;21.21;62.72;99356.09;10408456;28;821;-67
2023/09/11 15:40:33;;;;;;;;;;;;;;;21.23;62.91;99361.31;10409080;28;1909;-65
2023/09/11 15:45:29;;;;;;;;;;;;;;;21.22;62.97;99352.50;10408007;28;872;-66
2023/09/11 15:50:25;;;;;;;;;;;;;;;21.23;62.81;99356.00;10408021;28;872;-68
2023/09/11 15:55:21;;;;;;;;;;;;;;;21.22;62.93;99352.50;10408387;28;826;-67
2023/09/11 16:00:17;;;;;;;;;;;;;;;21.22;62.91;99355.16;10408409;28;1954;-66
2023/09/11 16:05:13;;;;;;;;;;;;;;;21.24;62.89;99350.59;10407964;28;967;-66
2023/09/11 16:10:09;;;;;;;;;;;;;;;21.24;62.94;99355.88;10407528;28;868;-67
2023/09/11 16:15:04;;;;;;;;;;;;;;;21.27;63.12;99354.00;10407512;28;1007;-67
2023/09/11 16:20:00;;;;;;;;;;;;;;;21.27;63.12;99346.03;10407218;28;1956;-66
2023/09/11 16:24:56;;;;;;;;;;;;;;;21.26;63.14;99345.19;10407227;28;948;-67
2023/09/11 16:29:52;;;;;;;;;;;;;;;21.27;62.92;99340.75;10406743;28;1163;-65
2023/09/11 16:34:48;;;;;;;;;;;;;;;21.27;62.93;99344.25;10407003;28;989;-65
2023/09/11 16:39:44;;;;;;;;;;;;;;;21.29;63.15;99346.81;10407434;28;1922;-65
2023/09/11 16:44:41;;;;;;;;;;;;;;;21.28;63.20;99345.97;10406295;28;948;-66
2023/09/11 16:49:37;;;;;;;;;;;;;;;21.28;63.13;99348.63;10413667;28;833;-66
2023/09/11 16:54:33;;;;;;;;;;;;;;;21.28;62.97;99353.06;10415651;28;861;-66
2023/09/11 16:59:29;;;;;;;;;;;;;;;21.28;63.02;99353.06;10414795;28;1948;-67
2023/09/11 17:04:25;;;;;;;;;;;;;;;21.28;63.10;99359.22;10413456;28;987;-67
2023/09/11 17:09:21;;;;;;;;;;;;;;;21.29;62.87;99354.75;10413301;28;826;-67
2023/09/11 17:14:17;;;;;;;;;;;;;;;21.29;63.00;99352.09;10414273;28;870;-67
2023/09/11 17:19:13;;;;;;;;;;;;;;;21.31;62.86;99358.16;10413410;28;1898;-66
2023/09/11 17:24:09;;;;;;;;;;;;;;;21.30;62.93;99349.38;10413865;28;814;-66
2023/09/11 17:29:04;;;;;;;;;;;;;;;21.32;62.86;99355.41;10412648;28;1368;-66
2023/09/11 17:34:02;;;;;;;;;;;;;;;21.31;62.91;99356.38;10412859;28;833;-67
2023/09/11 17:38:58;;;;;;;;;;;;;;;21.32;62.68;99360.69;10412703;28;786;-67
2023/09/11 17:43:54;;;;;;;;;;;;;;;21.34;62.53;99360.63;10413298;28;1973;-67
2023/09/11 17:48:50;;;;;;;;;;;;;;;21.33;62.75;99357.13;10412890;28;802;-67
2023/09/11 17:53:46;;;;;;;;;;;;;;;21.34;62.76;99358.81;10412032;28;904;-66
2023/09/11 17:58:42;;;;;;;;;;;;;;;21.36;62.64;99364.03;10411302;28;865;-67
2023/09/11 18:03:38;;;;;;;;;;;;;;;21.35;62.65;99368.50;10411806;28;1956;-67
2023/09/11 18:08:34;;;;;;;;;;;;;;;21.37;62.73;99373.66;10412115;28;944;-67
2023/09/11 18:13:29;;;;;;;;;;;;;;;21.38;62.79;99383.38;10412063;28;933;-66
2023/09/11 18:18:25;;;;;;;;;;;;;;;21.38;62.49;99388.69;10412034;28;869;-66
2023/09/11 18:23:21;;;;;;;;;;;;;;;21.39;62.72;99396.53;10410828;28;1898;-66
2023/09/11 18:28:17;;;;;;;;;;;;;;;21.40;62.75;99400.84;10410642;28;1135;-67
2023/09/11 18:33:13;;;;;;;;;;;;;;;21.40;62.76;99406.16;10409951;28;917;-66
2023/09/11 18:38:09;;;;;;;;;;;;;;;21.40;62.73;99408.81;10410335;28;810;-66
2023/09/11 18:43:05;;;;;;;;;;;;;;;21.41;62.70;99413.19;10410613;28;1909;-66
2023/09/11 18:48:01;;;;;;;;;;;;;;;21.42;62.67;99417.53;10409942;28;1126;-67
2023/09/11 18:52:57;;;;;;;;;;;;;;;21.43;62.58;99411.28;10410369;28;779;-67
2023/09/11 18:57:53;;;;;;;;;;;;;;;21.43;62.62;99413.06;10410220;28;859;-66
2023/09/11 19:02:48;;;;;;;;;;;;;;;21.44;62.63;99415.63;10409380;28;1902;-67
2023/09/11 19:07:44;;;;;;;;;;;;;;;21.44;62.53;99418.28;10409243;28;797;-66
2023/09/11 19:12:41;;;;;;;;;;;;;;;21.46;62.43;99418.22;10408114;28;833;-67
2023/09/11 19:17:37;;;;;;;;;;;;;;;21.45;62.38;99400.56;10409388;28;845;-67
2023/09/11 19:22:33;;;;;;;;;;;;;;;21.47;62.37;99401.34;10408622;28;1890;-66
2023/09/11 19:27:29;;;;;;;;;;;;;;;21.46;62.43;99402.28;10390423;28;991;-67
2023/09/11 19:32:25;;;;;;;;;;;;;;;21.48;62.50;99397.72;10408994;28;839;-66
2023/09/11 19:37:24;;;;;;;;;;;;;;;21.49;62.43;99388.00;10407706;28;937;-66
2023/09/11 19:42:20;;;;;;;;;;;;;;;21.50;62.48;99379.06;10408642;28;1909;-67
2023/09/11 19:47:15;;;;;;;;;;;;;;;21.50;62.27;99374.63;10408619;28;844;-67
2023/09/11 19:52:12;;;;;;;;;;;;;;;21.51;62.48;99375.47;10407986;28;1011;-67
2023/09/11 19:57:08;;;;;;;;;;;;;;;21.50;62.52;99374.63;10408561;28;885;-66
2023/09/11 20:02:03;;;;;;;;;;;;;;;21.52;62.46;99375.38;10408483;28;1893;-66
2023/09/11 20:06:59;;;;;;;;;;;;;;;21.53;62.52;99373.56;10407645;28;904;-67
2023/09/11 20:11:55;;;;;;;;;;;;;;;21.51;62.32;99371.03;10408144;28;767;-66
2023/09/11 20:16:51;;;;;;;;;;;;;;;21.53;62.29;99366.47;10407454;28;897;-67
2023/09/11 20:21:47;;;;;;;;;;;;;;;21.54;62.19;99369.97;10409755;28;1893;-67
2023/09/11 20:26:43;;;;;;;;;;;;;;;21.55;62.30;99377.81;10415524;28;946;-66
2023/09/11 20:31:39;;;;;;;;;;;;;;;21.54;62.16;99376.13;10415358;28;1301;-67
2023/09/11 20:36:35;;;;;;;;;;;;;;;21.55;62.37;99383.13;10415197;28;770;-66
2023/09/11 20:41:30;;;;;;;;;;;;;;;21.55;62.33;99380.47;10415611;28;1910;-66
2023/09/11 20:46:26;;;;;;;;;;;;;;;21.57;62.17;99381.22;10414346;28;1007;-66
2023/09/11 20:51:22;;;;;;;;;;;;;;;21.57;62.35;99388.34;10414621;28;765;-67
2023/09/11 20:56:18;;;;;;;;;;;;;;;21.57;62.21;99389.19;10414786;28;876;-66
2023/09/11 21:01:14;;;;;;;;;;;;;;;21.57;62.08;99380.38;10414214;28;1952;-66
2023/09/11 21:06:10;;;;;;;;;;;;;;;21.57;62.27;99375.94;10414630;28;837;-66
2023/09/11 21:11:06;;;;;;;;;;;;;;;21.58;62.23;99372.31;10413333;28;863;-66
2023/09/11 21:16:02;;;;;;;;;;;;;;;21.58;62.35;99380.28;10414892;28;955;-67
2023/09/11 21:20:58;;;;;;;;;;;;;;;21.58;62.26;99377.63;10414712;28;1909;-67
2023/09/11 21:25:56;;;;;;;;;;;;;;;21.61;62.09;99392.47;10413197;28;869;-67
2023/09/11 21:30:52;;;;;;;;;;;;;;;21.59;62.19;99397.91;10414313;28;1308;-67
2023/09/11 21:35:49;;;;;;;;;;;;;;;21.59;62.08;99416.47;10412013;28;1111;-67
2023/09/11 21:40:44;;;;;;;;;;;;;;;21.60;62.25;99438.53;10412025;28;1917;-67
2023/09/11 21:45:41;;;;;;;;;;;;;;;21.59;62.22;99443.00;10412507;28;868;-67
2023/09/11 21:50:37;;;;;;;;;;;;;;;21.60;62.25;99436.72;10412315;28;846;-66
2023/09/11 21:55:32;;;;;;;;;;;;;;;21.60;62.23;99431.41;10411563;28;917;-66
2023/09/11 22:00:28;;;;;;;;;;;;;;;21.61;62.05;99449.06;10411877;28;1898;-66
2023/09/11 22:05:24;;;;;;;;;;;;;;;21.61;62.20;99432.25;10412618;28;823;-67
2023/09/11 22:10:20;;;;;;;;;;;;;;;21.59;62.18;99421.78;10411505;28;785;-67
2023/09/11 22:15:16;;;;;;;;;;;;;;;21.61;61.98;99425.19;10411957;28;762;-67
2023/09/11 22:20:12;;;;;;;;;;;;;;;21.62;62.00;99420.72;10411626;28;1959;-67
2023/09/11 22:25:08;;;;;;;;;;;;;;;21.61;62.27;99419.88;10410925;28;837;-67
2023/09/11 22:30:04;;;;;;;;;;;;;;;21.62;62.01;99432.19;10411220;28;1766;-66
2023/09/11 22:34:59;;;;;;;;;;;;;;;21.62;62.03;99431.34;10411353;28;931;-67
2023/09/11 22:39:55;;;;;;;;;;;;;;;21.62;61.95;99426.03;10410295;28;1975;-67
2023/09/11 22:44:51;;;;;;;;;;;;;;;21.62;62.19;99429.53;10410001;28;856;-67
2023/09/11 22:49:47;;;;;;;;;;;;;;;21.63;62.01;99427.72;10410054;28;967;-67
2023/09/11 22:54:43;;;;;;;;;;;;;;;21.63;62.16;99433.88;10409215;28;866;-67
2023/09/11 22:59:39;;;;;;;;;;;;;;;21.63;62.12;99438.34;10409491;28;1906;-67
2023/09/11 23:04:35;;;;;;;;;;;;;;;21.63;62.01;99419.75;10409309;28;933;-67
2023/09/11 23:09:30;;;;;;;;;;;;;;;21.63;62.18;99422.41;10409798;28;913;-67
2023/09/11 23:14:26;;;;;;;;;;;;;;;21.64;62.00;99429.41;10409050;28;763;-66
2023/09/11 23:19:22;;;;;;;;;;;;;;;21.63;62.00;99431.22;10409397;28;1902;-67
2023/09/11 23:24:18;;;;;;;;;;;;;;;21.64;62.16;99430.28;10409711;28;850;-66
2023/09/11 23:29:14;;;;;;;;;;;;;;;21.64;62.17;99424.09;10408812;28;1138;-66
2023/09/11 23:34:10;;;;;;;;;;;;;;;21.64;61.96;99419.69;10409028;28;844;-66
2023/09/11 23:39:08;;;;;;;;;;;;;;;21.64;61.94;99417.03;10408284;28;767;-66
2023/09/11 23:44:04;;;;;;;;;;;;;;;21.64;62.04;99414.38;10408638;28;1909;-66
2023/09/11 23:49:00;;;;;;;;;;;;;;;21.64;61.94;99416.16;10408619;28;920;-66
2023/09/11 23:53:56;;;;;;;;;;;;;;;21.65;61.96;99418.72;10407886;28;995;-67
2023/09/11 23:58:51;;;;;;;;;;;;;;;21.64;62.13;99432.94;10407832;28;826;-66
